Time;durP1;ratioP1;P1;durP2;ratioP2;P2;SDS_P1;SDS_P2;PMS_P1;PMS_P2;Temp;Humidity;BMP_temperature;BMP_pressure;BME280_temperature;BME280_humidity;BME280_pressure;Samples;Min_cycle;Max_cycle;Signal;HPM_P1;HPM_P2
2022/02/21 00:01:53;;;;;;;2.95;0.73;;;;;;;;;;5012101;28;20458;-31
2022/02/21 00:04:21;;;;;;;6.78;1.00;;;;;;;;;;5013213;28;20064;-31
2022/02/21 00:06:48;;;;;;;1.92;0.60;;;;;;;;;;5012894;28;20060;-31
2022/02/21 00:09:15;;;;;;;2.10;0.60;;;;;;;;;;5013150;28;20026;-31
2022/02/21 00:11:42;;;;;;;3.85;0.57;;;;;;;;;;5012997;28;20041;-31
2022/02/21 00:14:09;;;;;;;2.42;0.77;;;;;;;;;;5012583;28;20045;-31
2022/02/21 00:16:36;;;;;;;2.53;0.90;;;;;;;;;;5005808;28;20030;-31
2022/02/21 00:19:03;;;;;;;4.00;0.63;;;;;;;;;;5001164;28;20026;-31
2022/02/21 00:21:30;;;;;;;5.07;0.70;;;;;;;;;;5003366;28;20036;-31
2022/02/21 00:23:58;;;;;;;5.78;0.65;;;;;;;;;;5000356;28;20069;-31
2022/02/21 00:26:25;;;;;;;4.38;1.00;;;;;;;;;;5001627;28;20046;-31
2022/02/21 00:28:52;;;;;;;3.65;0.70;;;;;;;;;;5001770;28;20062;-31
2022/02/21 00:31:19;;;;;;;3.30;0.63;;;;;;;;;;5000505;28;20033;-31
2022/02/21 00:33:46;;;;;;;4.68;0.77;;;;;;;;;;5000873;28;20415;-31
2022/02/21 00:36:13;;;;;;;4.78;1.02;;;;;;;;;;5010590;28;20034;-31
2022/02/21 00:38:41;;;;;;;3.30;0.80;;;;;;;;;;5011820;28;20407;-31
2022/02/21 00:41:09;;;;;;;6.15;0.90;;;;;;;;;;5012208;28;20030;-31
2022/02/21 00:43:38;;;;;;;3.35;0.90;;;;;;;;;;5012101;28;20040;-31
2022/02/21 00:46:05;;;;;;;2.85;0.90;;;;;;;;;;5012053;28;20084;-31
2022/02/21 00:48:32;;;;;;;2.97;0.80;;;;;;;;;;5012332;28;20022;-32
2022/02/21 00:50:59;;;;;;;4.40;0.70;;;;;;;;;;5011802;28;20372;-32
2022/02/21 00:53:27;;;;;;;2.45;0.73;;;;;;;;;;5010848;28;20479;-32
2022/02/21 00:55:54;;;;;;;2.58;1.08;;;;;;;;;;5012103;28;20046;-31
2022/02/21 00:58:22;;;;;;;2.17;0.70;;;;;;;;;;5011913;28;20034;-32
2022/02/21 01:00:50;;;;;;;3.85;0.90;;;;;;;;;;5011914;28;20030;-32
2022/02/21 01:03:16;;;;;;;1.83;0.80;;;;;;;;;;5011922;28;20108;-31
2022/02/21 01:05:45;;;;;;;5.53;0.80;;;;;;;;;;5011568;28;20491;-32
2022/02/21 01:08:13;;;;;;;3.65;1.10;;;;;;;;;;5012091;28;20033;-31
2022/02/21 01:10:40;;;;;;;4.28;1.00;;;;;;;;;;5011932;28;20040;-31
2022/02/21 01:13:07;;;;;;;2.00;1.02;;;;;;;;;;5010851;28;20029;-31
2022/02/21 01:15:35;;;;;;;4.55;1.30;;;;;;;;;;5011286;28;20424;-33
2022/02/21 01:18:03;;;;;;;4.20;0.90;;;;;;;;;;5010493;28;20160;-32
2022/02/21 01:20:30;;;;;;;5.07;1.05;;;;;;;;;;5011432;28;20083;-33
2022/02/21 01:22:58;;;;;;;5.22;1.00;;;;;;;;;;5011798;28;20034;-32
2022/02/21 01:25:26;;;;;;;6.07;1.52;;;;;;;;;;5011132;28;20117;-32
2022/02/21 01:27:54;;;;;;;11.20;1.75;;;;;;;;;;5011564;28;20259;-32
2022/02/21 01:30:22;;;;;;;8.35;1.60;;;;;;;;;;5011530;28;20395;-32
2022/02/21 01:32:50;;;;;;;10.35;1.58;;;;;;;;;;5009649;28;20034;-32
2022/02/21 01:35:17;;;;;;;11.05;2.03;;;;;;;;;;5000575;28;20057;-32
2022/02/21 01:37:44;;;;;;;7.60;1.65;;;;;;;;;;5002523;28;20026;-32
2022/02/21 01:40:12;;;;;;;9.80;1.63;;;;;;;;;;5010880;28;20060;-32
2022/02/21 01:42:40;;;;;;;9.77;1.67;;;;;;;;;;5009908;28;20125;-32
2022/02/21 01:45:07;;;;;;;9.90;1.90;;;;;;;;;;5011005;28;20879;-31
2022/02/21 01:47:34;;;;;;;6.95;1.77;;;;;;;;;;5011810;28;20030;-32
2022/02/21 01:50:01;;;;;;;9.50;2.00;;;;;;;;;;5011508;28;20026;-32
2022/02/21 01:52:29;;;;;;;9.02;1.77;;;;;;;;;;5011702;28;20021;-32
2022/02/21 01:54:56;;;;;;;9.88;2.00;;;;;;;;;;5011703;28;20018;-32
2022/02/21 01:57:23;;;;;;;9.13;1.77;;;;;;;;;;5011463;28;20022;-32
2022/02/21 01:59:50;;;;;;;9.38;1.48;;;;;;;;;;5011822;28;20101;-32
2022/02/21 02:02:17;;;;;;;5.57;1.50;;;;;;;;;;5011685;28;20480;-32
2022/02/21 02:04:44;;;;;;;7.10;1.77;;;;;;;;;;5011426;28;20765;-32
2022/02/21 02:07:11;;;;;;;7.28;1.95;;;;;;;;;;5011725;28;20104;-32
2022/02/21 02:09:38;;;;;;;7.78;1.98;;;;;;;;;;5011666;28;20483;-32
2022/02/21 02:12:08;;;;;;;6.63;1.50;;;;;;;;;;5011412;28;20032;-32
2022/02/21 02:14:39;;;;;;;10.77;1.92;;;;;;;;;;5010446;28;20475;-32
2022/02/21 02:17:08;;;;;;;8.93;2.08;;;;;;;;;;5011713;28;20072;-32
2022/02/21 02:19:36;;;;;;;6.20;1.30;;;;;;;;;;5011359;28;20022;-32
2022/02/21 02:22:13;;;;;;;5.43;1.50;;;;;;;;;;5011330;28;20390;-32
2022/02/21 02:24:40;;;;;;;7.95;1.40;;;;;;;;;;5013248;28;20030;-32
2022/02/21 02:27:10;;;;;;;6.55;1.33;;;;;;;;;;5014578;28;20518;-32
2022/02/21 02:29:38;;;;;;;7.90;1.50;;;;;;;;;;5014668;28;20549;-32
2022/02/21 02:32:06;;;;;;;6.40;1.38;;;;;;;;;;5014179;28;20072;-32
2022/02/21 02:34:33;;;;;;;6.70;1.48;;;;;;;;;;5014632;28;20386;-32
2022/02/21 02:37:00;;;;;;;8.45;1.20;;;;;;;;;;5014814;28;20079;-33
2022/02/21 02:39:28;;;;;;;5.57;1.30;;;;;;;;;;5014933;28;20045;-33
2022/02/21 02:41:55;;;;;;;9.20;1.60;;;;;;;;;;5014758;28;20100;-33
2022/02/21 02:44:22;;;;;;;5.07;0.90;;;;;;;;;;5014749;28;20676;-33
2022/02/21 02:46:49;;;;;;;3.88;1.35;;;;;;;;;;5014873;28;20065;-33
2022/02/21 02:49:16;;;;;;;3.80;1.30;;;;;;;;;;5014642;28;20097;-33
2022/02/21 02:51:43;;;;;;;9.23;1.52;;;;;;;;;;5014667;28;20041;-33
2022/02/21 02:54:11;;;;;;;5.20;1.35;;;;;;;;;;5014327;28;20384;-33
2022/02/21 02:56:42;;;;;;;5.75;1.48;;;;;;;;;;5014403;28;20030;-33
2022/02/21 02:59:09;;;;;;;4.68;1.00;;;;;;;;;;5014479;28;20384;-33
2022/02/21 03:01:37;;;;;;;5.18;1.20;;;;;;;;;;5014384;28;20029;-33
2022/02/21 03:04:04;;;;;;;4.95;1.20;;;;;;;;;;5014196;28;20129;-33
2022/02/21 03:06:31;;;;;;;9.68;1.48;;;;;;;;;;5014133;28;20022;-31
2022/02/21 03:08:59;;;;;;;6.20;1.23;;;;;;;;;;5014432;28;20046;-32
2022/02/21 03:11:26;;;;;;;8.15;1.33;;;;;;;;;;5014141;28;20033;-34
2022/02/21 03:13:55;;;;;;;8.02;1.35;;;;;;;;;;5012651;28;20026;-33
2022/02/21 03:22:22;;;;;;;5.10;1.17;;;;;;;;;;4993664;27;2454915;-33
2022/02/21 03:24:49;;;;;;;2.95;1.10;;;;;;;;;;5097205;28;20480;-30
2022/02/21 03:27:16;;;;;;;5.45;1.10;;;;;;;;;;5130113;28;20020;-30
2022/02/21 03:29:44;;;;;;;7.45;1.60;;;;;;;;;;5129902;28;20106;-29
2022/02/21 03:32:11;;;;;;;6.68;1.33;;;;;;;;;;5111309;28;20110;-30
2022/02/21 03:34:38;;;;;;;9.15;1.33;;;;;;;;;;5130007;28;20035;-33
2022/02/21 03:37:05;;;;;;;6.50;1.30;;;;;;;;;;5129985;28;20027;-32
2022/02/21 03:39:32;;;;;;;6.75;1.73;;;;;;;;;;5129824;28;20047;-31
2022/02/21 03:41:59;;;;;;;4.57;1.08;;;;;;;;;;5129742;28;20032;-30
2022/02/21 03:44:26;;;;;;;5.22;1.13;;;;;;;;;;5129782;28;20499;-32
2022/02/21 03:46:53;;;;;;;5.03;0.95;;;;;;;;;;5107067;28;20094;-29
2022/02/21 03:49:20;;;;;;;4.90;1.30;;;;;;;;;;5097299;28;20032;-30
2022/02/21 03:51:47;;;;;;;4.10;1.20;;;;;;;;;;5098327;28;20434;-30
2022/02/21 03:54:14;;;;;;;7.88;1.40;;;;;;;;;;5099291;28;20030;-30
2022/02/21 03:56:41;;;;;;;2.38;0.73;;;;;;;;;;5100159;28;20039;-30
2022/02/21 03:59:08;;;;;;;3.75;1.25;;;;;;;;;;5098212;28;20027;-32
2022/02/21 04:01:35;;;;;;;5.93;1.00;;;;;;;;;;5099090;28;20590;-30
2022/02/21 04:07:18;;;;;;;3.35;0.90;;;;;;;;;;5089262;28;20508;-34
2022/02/21 04:09:45;;;;;;;6.55;1.30;;;;;;;;;;5094982;28;20034;-30
2022/02/21 04:12:13;;;;;;;4.80;1.13;;;;;;;;;;5129113;28;20039;-31
2022/02/21 04:14:40;;;;;;;3.60;1.00;;;;;;;;;;5128175;28;20353;-32
2022/02/21 04:17:07;;;;;;;3.40;1.35;;;;;;;;;;5129472;28;20019;-30
2022/02/21 04:19:34;;;;;;;3.40;1.00;;;;;;;;;;5129372;28;20047;-29
2022/02/21 04:22:01;;;;;;;6.00;1.38;;;;;;;;;;5110561;28;20032;-32
2022/02/21 04:24:28;;;;;;;6.00;1.60;;;;;;;;;;5096902;28;20374;-30
2022/02/21 04:26:55;;;;;;;2.88;0.93;;;;;;;;;;5108514;28;20441;-33
2022/02/21 04:29:22;;;;;;;5.95;1.55;;;;;;;;;;5108269;28;20032;-30
2022/02/21 04:31:49;;;;;;;3.13;0.90;;;;;;;;;;5104415;28;20111;-30
2022/02/21 04:34:16;;;;;;;4.22;1.10;;;;;;;;;;5095089;28;20016;-30
2022/02/21 04:36:42;;;;;;;5.85;1.20;;;;;;;;;;5097760;28;20031;-29
2022/02/21 04:39:10;;;;;;;5.53;1.17;;;;;;;;;;5115337;28;20024;-30
2022/02/21 04:41:37;;;;;;;2.85;1.05;;;;;;;;;;5114939;28;20404;-32
2022/02/21 04:44:04;;;;;;;6.53;1.30;;;;;;;;;;5115144;28;20139;-32
2022/02/21 04:46:31;;;;;;;5.35;1.17;;;;;;;;;;5115350;28;20031;-30
2022/02/21 04:48:58;;;;;;;6.15;1.08;;;;;;;;;;5115239;28;20027;-32
2022/02/21 04:51:25;;;;;;;4.80;1.02;;;;;;;;;;5114928;28;20077;-32
2022/02/21 04:53:52;;;;;;;6.55;1.10;;;;;;;;;;5115067;28;20024;-30
2022/02/21 04:56:19;;;;;;;3.70;1.08;;;;;;;;;;5114979;28;20421;-29
2022/02/21 04:58:46;;;;;;;5.10;1.20;;;;;;;;;;5114813;28;20023;-30
2022/02/21 05:01:13;;;;;;;4.72;1.05;;;;;;;;;;5114605;28;20039;-31
2022/02/21 05:03:40;;;;;;;3.10;1.05;;;;;;;;;;5114739;28;20079;-31
2022/02/21 05:06:07;;;;;;;5.60;1.20;;;;;;;;;;5114881;28;20035;-30
2022/02/21 05:08:34;;;;;;;4.45;1.38;;;;;;;;;;5114781;28;20020;-31
2022/02/21 05:11:02;;;;;;;8.13;1.20;;;;;;;;;;5114560;28;20020;-30
2022/02/21 05:13:29;;;;;;;2.17;0.80;;;;;;;;;;5114691;28;20030;-32
2022/02/21 05:15:56;;;;;;;3.65;1.33;;;;;;;;;;5114639;28;20054;-31
2022/02/21 05:18:23;;;;;;;3.30;1.13;;;;;;;;;;5114557;28;20015;-31
2022/02/21 05:20:50;;;;;;;3.30;0.95;;;;;;;;;;5114391;28;20067;-30
2022/02/21 05:23:17;;;;;;;3.65;1.00;;;;;;;;;;5100428;28;20041;-30
2022/02/21 05:25:44;;;;;;;6.30;1.30;;;;;;;;;;5073559;28;20064;-30
2022/02/21 05:28:11;;;;;;;5.60;1.08;;;;;;;;;;5073511;28;20024;-30
2022/02/21 05:30:39;;;;;;;2.55;1.02;;;;;;;;;;5073454;28;20020;-30
2022/02/21 05:33:06;;;;;;;2.90;0.82;;;;;;;;;;5073280;28;20032;-29
2022/02/21 05:35:33;;;;;;;3.47;1.17;;;;;;;;;;5073839;28;20020;-33
2022/02/21 05:38:00;;;;;;;3.92;0.98;;;;;;;;;;5073515;28;20074;-30
2022/02/21 05:40:27;;;;;;;4.68;1.27;;;;;;;;;;5073032;28;20048;-32
2022/02/21 05:42:54;;;;;;;3.95;1.10;;;;;;;;;;5073181;28;20028;-29
2022/02/21 05:45:21;;;;;;;3.42;1.05;;;;;;;;;;5072559;28;20037;-30
2022/02/21 05:47:48;;;;;;;4.28;1.08;;;;;;;;;;5073335;28;20040;-29
2022/02/21 05:50:15;;;;;;;2.95;0.80;;;;;;;;;;5071585;28;20029;-30
2022/02/21 05:52:42;;;;;;;3.72;0.90;;;;;;;;;;5072951;28;20103;-29
2022/02/21 05:55:10;;;;;;;2.90;0.85;;;;;;;;;;5075784;28;20028;-30
2022/02/21 05:57:37;;;;;;;2.65;0.90;;;;;;;;;;5113453;28;20045;-31
2022/02/21 06:00:05;;;;;;;5.25;0.90;;;;;;;;;;5113501;28;20031;-30
2022/02/21 06:02:32;;;;;;;3.30;1.02;;;;;;;;;;5113538;28;20020;-30
2022/02/21 06:04:59;;;;;;;4.63;0.90;;;;;;;;;;5113532;28;20026;-30
2022/02/21 06:07:26;;;;;;;2.55;0.88;;;;;;;;;;5095062;28;20028;-31
2022/02/21 06:09:53;;;;;;;3.58;1.05;;;;;;;;;;5113182;28;20043;-30
2022/02/21 06:12:20;;;;;;;1.83;0.80;;;;;;;;;;5113320;28;20107;-30
2022/02/21 06:14:47;;;;;;;3.80;1.17;;;;;;;;;;5113352;28;20035;-31
2022/02/21 06:17:15;;;;;;;3.40;1.00;;;;;;;;;;5113167;28;20028;-30
2022/02/21 06:19:42;;;;;;;2.35;0.98;;;;;;;;;;5112963;28;20092;-31
2022/02/21 06:22:09;;;;;;;5.00;1.08;;;;;;;;;;5112898;28;20117;-30
2022/02/21 06:24:35;;;;;;;5.13;1.33;;;;;;;;;;5113143;28;20054;-31
2022/02/21 06:27:04;;;;;;;3.13;1.13;;;;;;;;;;5113164;28;20024;-31
2022/02/21 06:29:31;;;;;;;2.05;0.75;;;;;;;;;;5112942;28;20042;-30
2022/02/21 06:31:58;;;;;;;4.50;1.10;;;;;;;;;;5112916;28;20035;-30
2022/02/21 06:34:25;;;;;;;2.58;1.00;;;;;;;;;;5112870;28;20019;-30
2022/02/21 06:36:52;;;;;;;3.67;1.30;;;;;;;;;;5094621;28;20035;-30
2022/02/21 06:39:21;;;;;;;3.67;0.90;;;;;;;;;;5112943;28;20028;-30
2022/02/21 06:41:49;;;;;;;4.97;1.20;;;;;;;;;;5112210;28;20384;-30
2022/02/21 06:44:17;;;;;;;4.15;1.08;;;;;;;;;;5112846;28;20481;-30
2022/02/21 06:46:44;;;;;;;3.25;0.93;;;;;;;;;;5112563;28;20042;-31
2022/02/21 06:49:12;;;;;;;2.75;0.93;;;;;;;;;;5112788;28;20030;-29
2022/02/21 06:51:39;;;;;;;3.47;0.93;;;;;;;;;;5094214;28;20028;-30
2022/02/21 06:54:07;;;;;;;3.58;1.00;;;;;;;;;;5112702;28;20023;-31
2022/02/21 06:56:35;;;;;;;4.55;1.27;;;;;;;;;;5112584;28;20035;-33
2022/02/21 06:59:01;;;;;;;3.17;0.90;;;;;;;;;;5112615;28;20099;-30
2022/02/21 07:01:28;;;;;;;2.58;0.77;;;;;;;;;;5112477;28;20028;-30
2022/02/21 07:03:55;;;;;;;3.78;1.10;;;;;;;;;;5112577;28;20499;-30
2022/02/21 07:06:22;;;;;;;3.50;0.93;;;;;;;;;;5092164;28;20873;-31
2022/02/21 07:08:49;;;;;;;3.30;1.02;;;;;;;;;;5089269;28;20085;-31
2022/02/21 07:11:16;;;;;;;2.45;0.82;;;;;;;;;;5092098;28;20028;-31
2022/02/21 07:13:43;;;;;;;3.17;0.95;;;;;;;;;;5092231;28;20016;-30
2022/02/21 07:16:10;;;;;;;3.45;1.25;;;;;;;;;;5092565;28;20020;-31
2022/02/21 07:18:37;;;;;;;1.95;1.00;;;;;;;;;;5092573;28;20846;-30
2022/02/21 07:21:05;;;;;;;3.50;1.27;;;;;;;;;;5092402;28;20031;-30
2022/02/21 07:23:35;;;;;;;5.10;1.30;;;;;;;;;;5092312;28;20101;-30
2022/02/21 07:26:02;;;;;;;2.28;0.77;;;;;;;;;;5092316;28;20032;-33
2022/02/21 07:28:29;;;;;;;2.80;1.00;;;;;;;;;;5092285;28;20378;-30
2022/02/21 07:30:56;;;;;;;3.65;0.98;;;;;;;;;;5092197;28;20032;-31
2022/02/21 07:33:23;;;;;;;2.70;0.75;;;;;;;;;;5092247;28;20035;-30
2022/02/21 07:35:50;;;;;;;2.78;0.90;;;;;;;;;;5092260;28;20042;-30
2022/02/21 07:38:17;;;;;;;2.22;0.90;;;;;;;;;;5092293;28;20021;-34
2022/02/21 07:40:44;;;;;;;2.83;1.00;;;;;;;;;;5092064;28;20120;-30
2022/02/21 07:43:11;;;;;;;4.30;1.20;;;;;;;;;;5092248;28;20095;-30
2022/02/21 07:45:38;;;;;;;2.67;0.90;;;;;;;;;;5092285;28;20024;-30
2022/02/21 07:48:05;;;;;;;1.65;0.88;;;;;;;;;;5092262;28;20020;-30
2022/02/21 07:50:33;;;;;;;6.75;1.00;;;;;;;;;;5091999;28;20470;-30
2022/02/21 07:53:02;;;;;;;2.28;0.88;;;;;;;;;;5092067;28;20039;-30
2022/02/21 07:55:29;;;;;;;4.65;1.02;;;;;;;;;;5092101;28;20043;-31
2022/02/21 07:57:59;;;;;;;4.22;1.00;;;;;;;;;;5092165;28;20485;-30
2022/02/21 08:00:26;;;;;;;4.15;1.10;;;;;;;;;;5092002;28;20028;-30
2022/02/21 08:02:53;;;;;;;3.03;0.90;;;;;;;;;;5092122;28;20051;-30
2022/02/21 08:05:20;;;;;;;4.63;1.23;;;;;;;;;;5092069;28;20062;-31
2022/02/21 08:07:47;;;;;;;2.65;0.93;;;;;;;;;;5093981;28;20119;-30
2022/02/21 08:10:14;;;;;;;4.68;1.10;;;;;;;;;;5095793;28;20043;-31
2022/02/21 08:12:41;;;;;;;2.90;0.93;;;;;;;;;;5095835;28;20492;-30
2022/02/21 08:15:09;;;;;;;4.25;0.98;;;;;;;;;;5095815;28;20020;-31
2022/02/21 08:17:39;;;;;;;2.72;1.02;;;;;;;;;;5095773;28;20027;-32
2022/02/21 08:20:07;;;;;;;3.55;1.00;;;;;;;;;;5091036;28;20114;-33
2022/02/21 08:22:34;;;;;;;2.78;0.90;;;;;;;;;;5077705;28;20043;-32
2022/02/21 08:25:01;;;;;;;5.95;1.17;;;;;;;;;;5088284;28;20035;-32
2022/02/21 08:27:27;;;;;;;4.53;1.02;;;;;;;;;;5084373;28;20034;-31
2022/02/21 08:33:11;;;;;;;3.33;1.15;;;;;;;;;;5090298;28;20043;-31
2022/02/21 08:35:39;;;;;;;3.78;1.38;;;;;;;;;;5094715;28;20021;-31
2022/02/21 08:38:06;;;;;;;4.32;0.90;;;;;;;;;;5094678;28;20035;-29
2022/02/21 08:40:33;;;;;;;4.75;1.13;;;;;;;;;;5094627;28;20074;-31
2022/02/21 08:43:00;;;;;;;4.28;1.40;;;;;;;;;;5094487;28;20020;-30
2022/02/21 08:45:27;;;;;;;4.00;1.20;;;;;;;;;;5094732;28;20103;-30
2022/02/21 08:47:54;;;;;;;4.43;1.25;;;;;;;;;;5094773;28;20489;-30
2022/02/21 08:50:22;;;;;;;4.40;1.20;;;;;;;;;;5094635;28;20093;-30
2022/02/21 08:52:48;;;;;;;4.13;1.05;;;;;;;;;;5095062;28;20037;-29
2022/02/21 08:55:16;;;;;;;5.30;1.10;;;;;;;;;;5095132;28;20085;-29
2022/02/21 08:57:43;;;;;;;1.55;0.80;;;;;;;;;;5076484;28;20032;-29
2022/02/21 09:00:11;;;;;;;6.13;1.23;;;;;;;;;;5094662;28;20028;-30
2022/02/21 09:02:38;;;;;;;3.30;1.33;;;;;;;;;;5094122;28;20020;-29
2022/02/21 09:05:05;;;;;;;4.20;1.13;;;;;;;;;;5094752;28;20024;-29
2022/02/21 09:07:32;;;;;;;2.72;1.00;;;;;;;;;;5094889;28;20020;-30
2022/02/21 09:09:59;;;;;;;3.58;0.95;;;;;;;;;;5094597;28;20024;-30
2022/02/21 09:12:27;;;;;;;3.42;1.25;;;;;;;;;;5094541;28;20048;-30
2022/02/21 09:14:56;;;;;;;5.20;1.33;;;;;;;;;;5094916;28;20470;-30
2022/02/21 09:17:23;;;;;;;2.95;1.17;;;;;;;;;;5094533;28;20036;-30
2022/02/21 09:19:51;;;;;;;3.70;1.25;;;;;;;;;;5094301;28;20081;-32
2022/02/21 09:22:20;;;;;;;3.15;1.20;;;;;;;;;;5094230;28;20060;-30
2022/02/21 09:24:47;;;;;;;4.85;1.42;;;;;;;;;;5094729;28;20485;-30
2022/02/21 09:27:15;;;;;;;3.22;1.08;;;;;;;;;;5094422;28;20099;-30
2022/02/21 09:29:46;;;;;;;3.88;1.10;;;;;;;;;;5094294;28;20928;-29
2022/02/21 09:32:13;;;;;;;4.45;1.17;;;;;;;;;;5094294;28;20485;-30
2022/02/21 09:34:40;;;;;;;3.70;1.10;;;;;;;;;;5094279;28;20028;-30
2022/02/21 09:37:08;;;;;;;3.50;0.90;;;;;;;;;;5094303;28;20055;-30
2022/02/21 09:39:35;;;;;;;3.85;1.02;;;;;;;;;;5094071;28;20027;-29
2022/02/21 09:42:02;;;;;;;5.28;1.20;;;;;;;;;;5093879;28;20019;-30
2022/02/21 09:44:29;;;;;;;3.55;1.15;;;;;;;;;;5094007;28;20082;-31
2022/02/21 09:46:57;;;;;;;3.63;1.08;;;;;;;;;;5093840;28;20451;-32
2022/02/21 09:49:25;;;;;;;3.58;1.02;;;;;;;;;;5093913;28;20393;-30
2022/02/21 09:51:52;;;;;;;3.13;1.05;;;;;;;;;;5086190;28;20097;-30
2022/02/21 09:54:19;;;;;;;4.50;1.15;;;;;;;;;;5091188;28;20115;-30
2022/02/21 09:56:48;;;;;;;3.25;1.00;;;;;;;;;;5093379;28;20020;-31
2022/02/21 09:59:15;;;;;;;4.60;1.25;;;;;;;;;;5093563;28;20070;-30
2022/02/21 10:01:44;;;;;;;3.63;0.90;;;;;;;;;;5093662;28;20096;-32
2022/02/21 10:04:12;;;;;;;3.70;1.23;;;;;;;;;;5093746;28;20097;-30
2022/02/21 10:06:39;;;;;;;3.20;1.10;;;;;;;;;;5093710;28;20024;-32
2022/02/21 10:09:12;;;;;;;3.58;1.10;;;;;;;;;;5093521;28;20020;-30
2022/02/21 10:11:43;;;;;;;3.70;1.00;;;;;;;;;;5093589;28;20036;-33
2022/02/21 10:14:12;;;;;;;5.50;0.70;;;;;;;;;;5093502;28;20024;-31
2022/02/21 10:16:46;;;;;;;3.72;1.30;;;;;;;;;;5093425;28;20068;-31
2022/02/21 10:19:13;;;;;;;3.90;0.95;;;;;;;;;;5093406;28;20032;-30
2022/02/21 10:22:10;;;;;;;3.58;1.08;;;;;;;;;;5093332;28;20389;-30
2022/02/21 10:24:43;;;;;;;4.50;1.00;;;;;;;;;;5093207;28;20130;-30
2022/02/21 10:27:12;;;;;;;3.90;1.10;;;;;;;;;;5093238;28;20032;-30
2022/02/21 10:29:46;;;;;;;2.42;0.80;;;;;;;;;;5074724;28;20489;-31
2022/02/21 10:32:14;;;;;;;2.63;0.85;;;;;;;;;;5093080;28;20122;-32
2022/02/21 10:34:45;;;;;;;5.18;1.02;;;;;;;;;;5093172;28;20378;-30
2022/02/21 10:37:13;;;;;;;3.45;1.00;;;;;;;;;;5093081;28;20028;-30
2022/02/21 10:39:40;;;;;;;2.80;0.90;;;;;;;;;;5093032;28;20028;-30
2022/02/21 10:42:08;;;;;;;4.00;1.00;;;;;;;;;;5093049;28;20031;-30
2022/02/21 10:44:37;;;;;;;2.88;0.95;;;;;;;;;;5092890;28;20028;-30
2022/02/21 10:47:04;;;;;;;2.13;0.75;;;;;;;;;;5093002;28;20153;-30
2022/02/21 10:49:34;;;;;;;3.00;0.90;;;;;;;;;;5093097;28;20377;-30
2022/02/21 10:52:04;;;;;;;3.63;1.30;;;;;;;;;;5092762;28;20105;-30
2022/02/21 10:54:33;;;;;;;3.65;1.05;;;;;;;;;;5092737;28;20393;-29
2022/02/21 10:57:00;;;;;;;4.45;1.00;;;;;;;;;;5092852;28;20045;-29
2022/02/21 10:59:31;;;;;;;4.10;1.20;;;;;;;;;;5103075;28;20042;-30
2022/02/21 11:02:00;;;;;;;3.15;1.00;;;;;;;;;;5113111;28;20027;-31
2022/02/21 11:04:28;;;;;;;4.00;1.00;;;;;;;;;;5113061;28;20500;-29
2022/02/21 11:06:55;;;;;;;2.67;0.98;;;;;;;;;;5113034;28;20549;-31
2022/02/21 11:09:25;;;;;;;2.92;1.10;;;;;;;;;;5112861;28;20019;-33
2022/02/21 11:11:53;;;;;;;4.45;0.90;;;;;;;;;;5112824;28;20035;-32
2022/02/21 11:14:26;;;;;;;2.97;1.10;;;;;;;;;;5112907;28;20048;-32
2022/02/21 11:16:54;;;;;;;3.42;0.80;;;;;;;;;;5112737;28;20041;-32
2022/02/21 11:19:21;;;;;;;2.45;0.85;;;;;;;;;;5112310;28;20397;-32
2022/02/21 11:21:49;;;;;;;2.35;0.80;;;;;;;;;;5112448;28;20031;-34
2022/02/21 11:24:17;;;;;;;3.65;0.90;;;;;;;;;;5112694;28;20032;-32
2022/02/21 11:27:03;;;;;;;5.43;1.25;;;;;;;;;;5112097;28;20085;-33
2022/02/21 11:29:38;;;;;;;2.88;0.90;;;;;;;;;;5112686;28;20110;-32
2022/02/21 11:32:11;;;;;;;9.82;0.95;;;;;;;;;;5095533;28;20054;-34
2022/02/21 11:34:49;;;;;;;5.90;1.05;;;;;;;;;;5094282;28;20438;-33
2022/02/21 11:37:22;;;;;;;9.98;1.10;;;;;;;;;;5112726;28;20031;-32
2022/02/21 11:39:56;;;;;;;9.93;1.45;;;;;;;;;;5112457;28;20019;-35
2022/02/21 11:42:26;;;;;;;10.02;1.45;;;;;;;;;;5113825;28;20393;-34
2022/02/21 11:44:55;;;;;;;5.47;1.40;;;;;;;;;;5116837;28;20103;-33
2022/02/21 11:47:33;;;;;;;4.32;0.95;;;;;;;;;;5116737;28;20023;-32
2022/02/21 11:50:00;;;;;;;5.63;1.42;;;;;;;;;;5116548;28;20427;-32
2022/02/21 11:52:32;;;;;;;3.65;0.88;;;;;;;;;;5116534;28;20403;-31
2022/02/21 11:54:59;;;;;;;6.88;1.15;;;;;;;;;;5116635;28;20031;-31
2022/02/21 11:57:39;;;;;;;7.05;1.10;;;;;;;;;;5116546;28;20031;-29
2022/02/21 12:00:41;;;;;;;5.82;1.13;;;;;;;;;;5116305;28;20732;-29
2022/02/21 12:03:10;;;;;;;2.42;0.80;;;;;;;;;;5013864;28;20028;-29
2022/02/21 12:05:38;;;;;;;4.25;1.00;;;;;;;;;;5098532;28;20032;-30
2022/02/21 12:08:23;;;;;;;5.72;1.40;;;;;;;;;;5116386;28;20027;-30
2022/02/21 12:11:07;;;;;;;3.47;0.93;;;;;;;;;;5116145;28;20031;-29
2022/02/21 12:13:36;;;;;;;4.50;1.00;;;;;;;;;;5116321;28;20031;-29
2022/02/21 12:16:04;;;;;;;4.40;0.90;;;;;;;;;;5116280;28;20057;-29
2022/02/21 12:18:31;;;;;;;5.10;1.00;;;;;;;;;;5115445;28;20591;-30
2022/02/21 12:21:13;;;;;;;6.25;1.10;;;;;;;;;;5116014;28;20055;-28
2022/02/21 12:23:57;;;;;;;9.48;1.17;;;;;;;;;;5115666;28;20154;-29
2022/02/21 12:26:24;;;;;;;6.80;1.45;;;;;;;;;;5115914;28;20032;-28
2022/02/21 12:29:10;;;;;;;9.98;1.60;;;;;;;;;;5115345;28;20067;-37
2022/02/21 12:31:37;;;;;;;4.65;1.27;;;;;;;;;;5115792;28;20043;-29
2022/02/21 12:34:05;;;;;;;13.48;1.80;;;;;;;;;;5115833;28;20027;-28
2022/02/21 12:36:39;;;;;;;4.30;1.20;;;;;;;;;;5115850;28;20028;-31
2022/02/21 12:42:24;;;;;;;6.95;1.90;;;;;;;;;;5074129;28;20528;-35
2022/02/21 12:44:51;;;;;;;6.22;1.20;;;;;;;;;;5074478;28;20398;-29
2022/02/21 12:47:18;;;;;;;7.22;1.50;;;;;;;;;;5074711;28;20020;-29
2022/02/21 12:49:52;;;;;;;7.85;1.48;;;;;;;;;;5074150;28;20115;-31
2022/02/21 12:52:19;;;;;;;10.45;1.90;;;;;;;;;;5088195;28;20084;-30
2022/02/21 12:54:49;;;;;;;9.43;1.48;;;;;;;;;;5093622;28;20028;-29
2022/02/21 12:57:16;;;;;;;6.43;1.55;;;;;;;;;;5093882;28;20127;-29
2022/02/21 12:59:46;;;;;;;6.05;1.58;;;;;;;;;;5087293;28;20646;-29
2022/02/21 13:02:13;;;;;;;4.72;1.23;;;;;;;;;;5083321;28;20508;-29
2022/02/21 13:04:40;;;;;;;6.75;1.33;;;;;;;;;;5093556;28;20016;-29
2022/02/21 13:07:09;;;;;;;11.27;1.80;;;;;;;;;;5093957;28;20062;-32
2022/02/21 13:09:36;;;;;;;12.45;1.60;;;;;;;;;;5098459;28;20043;-33
2022/02/21 13:12:03;;;;;;;8.32;1.35;;;;;;;;;;5113284;28;20085;-27
2022/02/21 13:14:35;;;;;;;9.00;1.73;;;;;;;;;;5113043;28;20058;-31
2022/02/21 13:17:04;;;;;;;3.95;1.20;;;;;;;;;;5113242;28;20092;-30
2022/02/21 13:19:32;;;;;;;11.10;2.03;;;;;;;;;;5112852;28;20121;-30
2022/02/21 13:22:00;;;;;;;8.38;1.63;;;;;;;;;;5113234;28;20120;-33
2022/02/21 13:24:31;;;;;;;9.10;1.70;;;;;;;;;;5112951;28;20024;-32
2022/02/21 13:27:00;;;;;;;11.25;1.30;;;;;;;;;;5112518;28;20031;-34
2022/02/21 13:29:26;;;;;;;5.22;1.02;;;;;;;;;;5112597;28;20052;-32
2022/02/21 13:31:55;;;;;;;10.23;1.70;;;;;;;;;;5113408;28;20028;-34
2022/02/21 13:34:44;;;;;;;7.53;1.45;;;;;;;;;;5113512;28;20020;-31
2022/02/21 13:37:17;;;;;;;6.68;1.50;;;;;;;;;;5112275;28;20035;-31
2022/02/21 13:39:45;;;;;;;8.63;1.27;;;;;;;;;;5112926;28;20609;-34
2022/02/21 13:42:31;;;;;;;14.10;1.75;;;;;;;;;;5110282;28;20032;-34
2022/02/21 13:45:18;;;;;;;13.18;1.70;;;;;;;;;;5113301;28;20080;-32
2022/02/21 13:47:46;;;;;;;8.88;1.63;;;;;;;;;;5111943;28;20055;-32
2022/02/21 13:50:32;;;;;;;7.88;1.50;;;;;;;;;;5096110;28;20030;-34
2022/02/21 13:52:59;;;;;;;10.73;1.75;;;;;;;;;;5072221;28;20024;-31
2022/02/21 13:55:30;;;;;;;10.27;1.60;;;;;;;;;;5070020;28;20028;-34
2022/02/21 13:58:00;;;;;;;8.50;1.30;;;;;;;;;;5070785;28;20721;-32
2022/02/21 14:00:37;;;;;;;13.35;1.50;;;;;;;;;;5071853;28;20505;-32
2022/02/21 14:03:05;;;;;;;5.95;1.23;;;;;;;;;;5071572;28;20032;-31
2022/02/21 14:05:32;;;;;;;9.13;1.73;;;;;;;;;;5071382;28;20035;-32
2022/02/21 14:07:59;;;;;;;10.93;1.50;;;;;;;;;;5071472;28;20390;-31
2022/02/21 14:10:26;;;;;;;10.43;1.40;;;;;;;;;;5070927;28;20036;-32
2022/02/21 14:12:57;;;;;;;6.75;1.20;;;;;;;;;;5071549;28;20028;-30
2022/02/21 14:15:24;;;;;;;8.07;1.55;;;;;;;;;;5087500;28;20043;-31
2022/02/21 14:17:52;;;;;;;4.88;1.00;;;;;;;;;;5091798;28;20035;-28
2022/02/21 14:20:19;;;;;;;4.38;1.27;;;;;;;;;;5091354;28;20031;-32
2022/02/21 14:22:46;;;;;;;5.22;0.95;;;;;;;;;;5091660;28;20051;-31
2022/02/21 14:25:13;;;;;;;10.00;1.30;;;;;;;;;;5091485;28;20024;-31
2022/02/21 14:27:40;;;;;;;4.95;1.33;;;;;;;;;;5092294;28;20032;-31
2022/02/21 14:30:07;;;;;;;9.75;1.20;;;;;;;;;;5090687;28;20125;-35
2022/02/21 14:32:34;;;;;;;11.40;1.67;;;;;;;;;;5091705;28;20106;-31
2022/02/21 14:35:01;;;;;;;5.03;1.00;;;;;;;;;;5091473;28;20094;-30
2022/02/21 14:37:28;;;;;;;5.72;1.27;;;;;;;;;;5091552;28;20028;-33
2022/02/21 14:39:55;;;;;;;9.55;1.30;;;;;;;;;;5091328;28;20077;-32
2022/02/21 14:42:22;;;;;;;10.93;1.50;;;;;;;;;;5090339;28;20043;-39
2022/02/21 14:44:49;;;;;;;6.00;1.10;;;;;;;;;;5084521;28;20028;-31
2022/02/21 14:47:16;;;;;;;9.07;1.70;;;;;;;;;;5091555;28;20023;-31
2022/02/21 14:49:44;;;;;;;8.45;1.67;;;;;;;;;;5091145;28;20050;-31
2022/02/21 14:52:11;;;;;;;5.63;0.93;;;;;;;;;;5091081;28;20036;-33
2022/02/21 14:54:38;;;;;;;4.30;0.90;;;;;;;;;;5091211;28;20061;-34
2022/02/21 14:57:05;;;;;;;7.10;1.30;;;;;;;;;;5091575;28;20036;-31
2022/02/21 14:59:32;;;;;;;8.75;1.40;;;;;;;;;;5091289;28;20093;-31
2022/02/21 15:01:59;;;;;;;6.60;1.15;;;;;;;;;;5090302;28;20039;-34
2022/02/21 15:04:26;;;;;;;7.72;1.15;;;;;;;;;;5091006;28;20032;-31
2022/02/21 15:06:54;;;;;;;10.77;1.50;;;;;;;;;;5090917;28;20024;-31